sensor_id;sensor_type;location;lat;lon;timestamp;temperature;humidity
47921;DHT22;33686;48.770;9.186;2023-07-20T05:05:03;23.30;97.70
47921;DHT22;33686;48.770;9.186;2023-07-20T05:07:32;23.80;96.50
47921;DHT22;33686;48.770;9.186;2023-07-20T05:09:58;24.00;96.30
47921;DHT22;33686;48.770;9.186;2023-07-20T05:12:24;24.30;95.60
47921;DHT22;33686;48.770;9.186;2023-07-20T05:14:51;24.50;95.00
47921;DHT22;33686;48.770;9.186;2023-07-20T05:17:16;24.80;94.60
47921;DHT22;33686;48.770;9.186;2023-07-20T05:19:48;25.10;94.30
47921;DHT22;33686;48.770;9.186;2023-07-20T05:22:14;25.00;94.10
47921;DHT22;33686;48.770;9.186;2023-07-20T05:24:40;24.70;94.10
47921;DHT22;33686;48.770;9.186;2023-07-20T05:27:05;25.30;93.80
47921;DHT22;33686;48.770;9.186;2023-07-20T05:29:32;24.90;94.10
47921;DHT22;33686;48.770;9.186;2023-07-20T05:31:58;24.70;94.20
47921;DHT22;33686;48.770;9.186;2023-07-20T05:34:25;24.00;94.70
47921;DHT22;33686;48.770;9.186;2023-07-20T05:36:54;24.40;94.50
47921;DHT22;33686;48.770;9.186;2023-07-20T05:39:20;24.20;95.10
47921;DHT22;33686;48.770;9.186;2023-07-20T05:41:46;24.00;94.90
47921;DHT22;33686;48.770;9.186;2023-07-20T05:44:13;23.70;95.40
47921;DHT22;33686;48.770;9.186;2023-07-20T05:46:39;23.80;95.70
47921;DHT22;33686;48.770;9.186;2023-07-20T05:49:05;23.80;95.50
47921;DHT22;33686;48.770;9.186;2023-07-20T05:51:30;23.90;95.30
47921;DHT22;33686;48.770;9.186;2023-07-20T05:53:59;24.40;94.90
47921;DHT22;33686;48.770;9.186;2023-07-20T05:56:28;25.10;94.30
47921;DHT22;33686;48.770;9.186;2023-07-20T05:58:53;24.70;94.30
47921;DHT22;33686;48.770;9.186;2023-07-20T06:01:20;24.20;94.80
47921;DHT22;33686;48.770;9.186;2023-07-20T06:03:45;24.10;95.00
47921;DHT22;33686;48.770;9.186;2023-07-20T06:06:11;24.00;95.00
47921;DHT22;33686;48.770;9.186;2023-07-20T06:08:38;23.40;95.80
47921;DHT22;33686;48.770;9.186;2023-07-20T06:11:03;23.30;96.30
47921;DHT22;33686;48.770;9.186;2023-07-20T06:13:29;23.30;96.30
47921;DHT22;33686;48.770;9.186;2023-07-20T06:15:56;23.10;96.30
47921;DHT22;33686;48.770;9.186;2023-07-20T06:18:24;23.40;96.30
47921;DHT22;33686;48.770;9.186;2023-07-20T06:20:51;23.50;95.70
47921;DHT22;33686;48.770;9.186;2023-07-20T06:23:18;23.50;96.00
47921;DHT22;33686;48.770;9.186;2023-07-20T06:25:43;23.50;96.10
47921;DHT22;33686;48.770;9.186;2023-07-20T06:28:09;23.50;96.00
47921;DHT22;33686;48.770;9.186;2023-07-20T06:30:34;23.30;96.30
47921;DHT22;33686;48.770;9.186;2023-07-20T06:33:00;24.10;95.80
47921;DHT22;33686;48.770;9.186;2023-07-20T06:35:26;24.70;94.90
47921;DHT22;33686;48.770;9.186;2023-07-20T06:37:52;25.30;94.20
47921;DHT22;33686;48.770;9.186;2023-07-20T06:40:18;25.70;93.70
47921;DHT22;33686;48.770;9.186;2023-07-20T06:42:44;26.70;93.00
47921;DHT22;33686;48.770;9.186;2023-07-20T06:45:09;27.80;91.90
47921;DHT22;33686;48.770;9.186;2023-07-20T06:47:37;27.90;91.30
47921;DHT22;33686;48.770;9.186;2023-07-20T06:50:03;27.70;91.30
47921;DHT22;33686;48.770;9.186;2023-07-20T06:52:29;28.90;90.60
47921;DHT22;33686;48.770;9.186;2023-07-20T06:54:59;29.10;90.10
47921;DHT22;33686;48.770;9.186;2023-07-20T06:57:26;28.80;90.50
47921;DHT22;33686;48.770;9.186;2023-07-20T06:59:52;29.60;89.60
47921;DHT22;33686;48.770;9.186;2023-07-20T07:02:18;29.00;90.30
47921;DHT22;33686;48.770;9.186;2023-07-20T07:04:44;29.00;90.10
47921;DHT22;33686;48.770;9.186;2023-07-20T07:07:11;29.00;90.20
47921;DHT22;33686;48.770;9.186;2023-07-20T07:09:36;28.90;90.60
47921;DHT22;33686;48.770;9.186;2023-07-20T07:12:02;29.30;89.70
47921;DHT22;33686;48.770;9.186;2023-07-20T07:14:27;30.20;89.50
47921;DHT22;33686;48.770;9.186;2023-07-20T07:16:53;30.60;87.50
47921;DHT22;33686;48.770;9.186;2023-07-20T07:19:18;30.60;87.20
47921;DHT22;33686;48.770;9.186;2023-07-20T07:21:44;30.40;87.40
47921;DHT22;33686;48.770;9.186;2023-07-20T07:24:10;30.90;85.90
47921;DHT22;33686;48.770;9.186;2023-07-20T07:26:36;31.00;85.80
47921;DHT22;33686;48.770;9.186;2023-07-20T07:29:02;30.50;86.10
47921;DHT22;33686;48.770;9.186;2023-07-20T07:31:29;30.90;85.30
47921;DHT22;33686;48.770;9.186;2023-07-20T07:33:56;30.60;86.50
47921;DHT22;33686;48.770;9.186;2023-07-20T07:36:22;30.60;86.00
47921;DHT22;33686;48.770;9.186;2023-07-20T07:38:50;30.50;86.40
47921;DHT22;33686;48.770;9.186;2023-07-20T07:41:15;31.00;84.80
47921;DHT22;33686;48.770;9.186;2023-07-20T07:43:41;31.60;83.30
47921;DHT22;33686;48.770;9.186;2023-07-20T07:46:07;31.80;83.90
47921;DHT22;33686;48.770;9.186;2023-07-20T07:48:33;31.40;83.60
47921;DHT22;33686;48.770;9.186;2023-07-20T07:50:58;30.60;83.80
47921;DHT22;33686;48.770;9.186;2023-07-20T07:53:24;29.90;84.90
47921;DHT22;33686;48.770;9.186;2023-07-20T07:55:51;30.70;84.00
47921;DHT22;33686;48.770;9.186;2023-07-20T07:58:18;30.60;84.10
47921;DHT22;33686;48.770;9.186;2023-07-20T08:01:04;31.60;82.60
47921;DHT22;33686;48.770;9.186;2023-07-20T08:03:30;31.60;82.60
47921;DHT22;33686;48.770;9.186;2023-07-20T08:05:55;31.10;82.90
47921;DHT22;33686;48.770;9.186;2023-07-20T08:08:22;30.90;84.00
47921;DHT22;33686;48.770;9.186;2023-07-20T08:10:47;30.30;84.60
47921;DHT22;33686;48.770;9.186;2023-07-20T08:13:14;30.20;84.30
47921;DHT22;33686;48.770;9.186;2023-07-20T08:15:45;29.60;84.00
47921;DHT22;33686;48.770;9.186;2023-07-20T08:18:12;29.20;84.50
47921;DHT22;33686;48.770;9.186;2023-07-20T08:20:37;29.50;84.60
47921;DHT22;33686;48.770;9.186;2023-07-20T08:23:03;30.00;83.80
47921;DHT22;33686;48.770;9.186;2023-07-20T08:25:28;29.30;84.10
47921;DHT22;33686;48.770;9.186;2023-07-20T08:27:55;28.20;85.30
47921;DHT22;33686;48.770;9.186;2023-07-20T08:33:07;26.90;87.60
47921;DHT22;33686;48.770;9.186;2023-07-20T08:35:33;26.20;87.70
47921;DHT22;33686;48.770;9.186;2023-07-20T08:38:01;26.30;88.80
47921;DHT22;33686;48.770;9.186;2023-07-20T08:40:27;27.70;88.60
47921;DHT22;33686;48.770;9.186;2023-07-20T08:42:54;26.70;87.60
47921;DHT22;33686;48.770;9.186;2023-07-20T08:45:22;26.30;89.00
47921;DHT22;33686;48.770;9.186;2023-07-20T08:47:47;26.70;88.60
47921;DHT22;33686;48.770;9.186;2023-07-20T08:50:16;26.40;89.40
47921;DHT22;33686;48.770;9.186;2023-07-20T08:52:44;26.00;87.90
47921;DHT22;33686;48.770;9.186;2023-07-20T08:55:14;25.40;88.50
47921;DHT22;33686;48.770;9.186;2023-07-20T08:57:39;25.50;89.30
47921;DHT22;33686;48.770;9.186;2023-07-20T09:00:08;25.50;89.80
47921;DHT22;33686;48.770;9.186;2023-07-20T09:02:38;24.50;90.40
47921;DHT22;33686;48.770;9.186;2023-07-20T09:05:07;24.30;90.90
47921;DHT22;33686;48.770;9.186;2023-07-20T09:07:33;26.00;90.30
47921;DHT22;33686;48.770;9.186;2023-07-20T09:09:59;27.10;88.30
47921;DHT22;33686;48.770;9.186;2023-07-20T09:12:25;27.30;87.60
47921;DHT22;33686;48.770;9.186;2023-07-20T09:14:51;28.60;85.50
47921;DHT22;33686;48.770;9.186;2023-07-20T09:17:16;29.30;83.20
47921;DHT22;33686;48.770;9.186;2023-07-20T09:19:45;30.00;81.50
47921;DHT22;33686;48.770;9.186;2023-07-20T09:22:11;28.70;83.10
47921;DHT22;33686;48.770;9.186;2023-07-20T09:24:37;27.50;85.00
47921;DHT22;33686;48.770;9.186;2023-07-20T09:27:02;28.50;84.70
47921;DHT22;33686;48.770;9.186;2023-07-20T09:29:30;28.80;83.50
47921;DHT22;33686;48.770;9.186;2023-07-20T09:32:01;29.30;81.50
47921;DHT22;33686;48.770;9.186;2023-07-20T09:34:28;29.00;81.30
47921;DHT22;33686;48.770;9.186;2023-07-20T09:36:53;28.30;82.30
47921;DHT22;33686;48.770;9.186;2023-07-20T09:39:20;27.00;84.80
47921;DHT22;33686;48.770;9.186;2023-07-20T09:41:45;26.50;86.10
47921;DHT22;33686;48.770;9.186;2023-07-20T09:44:11;26.30;87.80
47921;DHT22;33686;48.770;9.186;2023-07-20T09:46:47;27.10;84.80
47921;DHT22;33686;48.770;9.186;2023-07-20T09:49:13;26.70;85.50
47921;DHT22;33686;48.770;9.186;2023-07-20T09:51:39;26.50;84.40
47921;DHT22;33686;48.770;9.186;2023-07-20T09:54:05;26.50;85.00
47921;DHT22;33686;48.770;9.186;2023-07-20T09:56:30;26.60;85.40
47921;DHT22;33686;48.770;9.186;2023-07-20T09:58:58;27.40;82.70
47921;DHT22;33686;48.770;9.186;2023-07-20T10:01:24;27.80;82.20
47921;DHT22;33686;48.770;9.186;2023-07-20T10:03:51;27.80;81.40
47921;DHT22;33686;48.770;9.186;2023-07-20T10:06:20;26.50;83.30
47921;DHT22;33686;48.770;9.186;2023-07-20T10:08:48;26.20;84.10
47921;DHT22;33686;48.770;9.186;2023-07-20T10:11:15;26.50;83.80
47921;DHT22;33686;48.770;9.186;2023-07-20T10:13:41;26.10;83.40
47921;DHT22;33686;48.770;9.186;2023-07-20T10:16:14;25.70;85.10
47921;DHT22;33686;48.770;9.186;2023-07-20T10:18:51;26.20;83.90
47921;DHT22;33686;48.770;9.186;2023-07-20T10:21:17;26.10;84.40
47921;DHT22;33686;48.770;9.186;2023-07-20T10:23:45;25.90;85.80
47921;DHT22;33686;48.770;9.186;2023-07-20T10:26:11;25.70;85.00
47921;DHT22;33686;48.770;9.186;2023-07-20T10:28:38;25.00;85.00
47921;DHT22;33686;48.770;9.186;2023-07-20T10:31:14;24.70;85.20
47921;DHT22;33686;48.770;9.186;2023-07-20T10:33:41;25.20;85.10
47921;DHT22;33686;48.770;9.186;2023-07-20T10:36:09;25.60;83.60
47921;DHT22;33686;48.770;9.186;2023-07-20T10:41:34;26.00;83.00
47921;DHT22;33686;48.770;9.186;2023-07-20T10:44:02;26.10;83.20
47921;DHT22;33686;48.770;9.186;2023-07-20T10:49:06;25.60;83.90
47921;DHT22;33686;48.770;9.186;2023-07-20T10:51:39;25.80;83.80
47921;DHT22;33686;48.770;9.186;2023-07-20T10:56:43;26.60;82.90
47921;DHT22;33686;48.770;9.186;2023-07-20T10:59:35;26.50;82.40
47921;DHT22;33686;48.770;9.186;2023-07-20T11:02:08;25.80;82.40
47921;DHT22;33686;48.770;9.186;2023-07-20T11:07:06;25.60;81.50
47921;DHT22;33686;48.770;9.186;2023-07-20T11:09:35;25.60;82.50
47921;DHT22;33686;48.770;9.186;2023-07-20T11:12:10;25.80;82.50
47921;DHT22;33686;48.770;9.186;2023-07-20T11:14:41;25.70;81.60
47921;DHT22;33686;48.770;9.186;2023-07-20T11:17:13;25.60;81.10
47921;DHT22;33686;48.770;9.186;2023-07-20T11:19:39;25.70;80.70
47921;DHT22;33686;48.770;9.186;2023-07-20T11:22:06;25.30;81.10
47921;DHT22;33686;48.770;9.186;2023-07-20T11:24:56;25.70;80.70
47921;DHT22;33686;48.770;9.186;2023-07-20T11:27:23;25.60;80.60
47921;DHT22;33686;48.770;9.186;2023-07-20T11:29:49;25.00;79.70
47921;DHT22;33686;48.770;9.186;2023-07-20T11:32:22;24.80;80.90
47921;DHT22;33686;48.770;9.186;2023-07-20T11:34:48;25.50;80.80
47921;DHT22;33686;48.770;9.186;2023-07-20T11:37:14;25.70;80.20
47921;DHT22;33686;48.770;9.186;2023-07-20T11:39:39;26.30;79.70
47921;DHT22;33686;48.770;9.186;2023-07-20T11:42:05;25.60;80.50
47921;DHT22;33686;48.770;9.186;2023-07-20T11:44:30;25.20;80.80
47921;DHT22;33686;48.770;9.186;2023-07-20T11:47:14;25.30;81.40
47921;DHT22;33686;48.770;9.186;2023-07-20T11:49:41;24.70;81.50
47921;DHT22;33686;48.770;9.186;2023-07-20T11:52:11;24.70;81.80
47921;DHT22;33686;48.770;9.186;2023-07-20T11:54:39;24.80;81.40
47921;DHT22;33686;48.770;9.186;2023-07-20T11:57:05;24.70;81.00
47921;DHT22;33686;48.770;9.186;2023-07-20T11:59:31;25.10;80.80
47921;DHT22;33686;48.770;9.186;2023-07-20T12:01:58;25.50;80.10
47921;DHT22;33686;48.770;9.186;2023-07-20T12:04:24;24.90;80.50
47921;DHT22;33686;48.770;9.186;2023-07-20T12:06:49;25.20;80.60
47921;DHT22;33686;48.770;9.186;2023-07-20T12:09:16;24.90;80.20
47921;DHT22;33686;48.770;9.186;2023-07-20T12:11:43;24.90;79.80
47921;DHT22;33686;48.770;9.186;2023-07-20T12:14:09;25.40;78.80
47921;DHT22;33686;48.770;9.186;2023-07-20T12:16:35;25.40;79.50
47921;DHT22;33686;48.770;9.186;2023-07-20T12:19:06;25.50;78.50
47921;DHT22;33686;48.770;9.186;2023-07-20T12:21:36;25.50;77.80
47921;DHT22;33686;48.770;9.186;2023-07-20T12:24:02;25.20;78.10
47921;DHT22;33686;48.770;9.186;2023-07-20T12:26:29;24.70;78.90
47921;DHT22;33686;48.770;9.186;2023-07-20T12:28:55;24.30;79.30
47921;DHT22;33686;48.770;9.186;2023-07-20T12:31:21;24.30;79.30
47921;DHT22;33686;48.770;9.186;2023-07-20T12:33:48;24.40;79.60
47921;DHT22;33686;48.770;9.186;2023-07-20T12:36:14;24.50;79.20
47921;DHT22;33686;48.770;9.186;2023-07-20T12:38:39;24.90;80.00
47921;DHT22;33686;48.770;9.186;2023-07-20T12:41:07;25.00;79.80
47921;DHT22;33686;48.770;9.186;2023-07-20T12:43:33;25.30;79.90
47921;DHT22;33686;48.770;9.186;2023-07-20T12:45:59;25.40;80.20
47921;DHT22;33686;48.770;9.186;2023-07-20T12:48:26;25.70;79.80
47921;DHT22;33686;48.770;9.186;2023-07-20T12:50:52;26.10;79.20
47921;DHT22;33686;48.770;9.186;2023-07-20T12:53:18;25.90;79.20
47921;DHT22;33686;48.770;9.186;2023-07-20T12:55:43;26.10;78.80
47921;DHT22;33686;48.770;9.186;2023-07-20T12:58:09;25.90;78.30
47921;DHT22;33686;48.770;9.186;2023-07-20T13:00:35;25.20;79.00
47921;DHT22;33686;48.770;9.186;2023-07-20T13:03:00;24.70;79.30
47921;DHT22;33686;48.770;9.186;2023-07-20T13:05:33;24.30;79.50
47921;DHT22;33686;48.770;9.186;2023-07-20T13:07:58;24.50;79.40
47921;DHT22;33686;48.770;9.186;2023-07-20T13:10:26;24.60;79.90
47921;DHT22;33686;48.770;9.186;2023-07-20T13:12:53;24.90;78.60
47921;DHT22;33686;48.770;9.186;2023-07-20T13:15:19;25.00;78.10
47921;DHT22;33686;48.770;9.186;2023-07-20T13:17:47;25.10;79.10
47921;DHT22;33686;48.770;9.186;2023-07-20T13:20:14;25.10;78.00
47921;DHT22;33686;48.770;9.186;2023-07-20T13:22:42;25.10;78.10
47921;DHT22;33686;48.770;9.186;2023-07-20T13:25:07;25.30;77.90
47921;DHT22;33686;48.770;9.186;2023-07-20T13:27:33;26.00;78.00
47921;DHT22;33686;48.770;9.186;2023-07-20T13:29:59;26.30;76.70
47921;DHT22;33686;48.770;9.186;2023-07-20T13:32:33;26.20;76.80
47921;DHT22;33686;48.770;9.186;2023-07-20T13:34:59;26.40;76.70
47921;DHT22;33686;48.770;9.186;2023-07-20T13:37:25;26.60;77.10
47921;DHT22;33686;48.770;9.186;2023-07-20T13:39:50;26.50;76.80
47921;DHT22;33686;48.770;9.186;2023-07-20T13:42:16;26.50;76.40
47921;DHT22;33686;48.770;9.186;2023-07-20T13:44:42;26.00;75.60
47921;DHT22;33686;48.770;9.186;2023-07-20T13:47:08;25.60;76.70
47921;DHT22;33686;48.770;9.186;2023-07-20T13:49:35;25.30;76.30
47921;DHT22;33686;48.770;9.186;2023-07-20T13:52:00;25.30;76.50
47921;DHT22;33686;48.770;9.186;2023-07-20T13:54:26;25.30;77.10
47921;DHT22;33686;48.770;9.186;2023-07-20T13:56:53;25.30;76.40
47921;DHT22;33686;48.770;9.186;2023-07-20T13:59:19;25.60;76.50
47921;DHT22;33686;48.770;9.186;2023-07-20T14:01:44;26.00;76.50
47921;DHT22;33686;48.770;9.186;2023-07-20T14:04:10;26.40;76.20
47921;DHT22;33686;48.770;9.186;2023-07-20T14:06:36;26.50;75.50
47921;DHT22;33686;48.770;9.186;2023-07-20T14:09:01;26.10;76.00
47921;DHT22;33686;48.770;9.186;2023-07-20T14:11:27;25.80;76.50
47921;DHT22;33686;48.770;9.186;2023-07-20T14:13:53;25.60;76.00
47921;DHT22;33686;48.770;9.186;2023-07-20T14:16:22;25.90;76.30
47921;DHT22;33686;48.770;9.186;2023-07-20T14:18:48;25.90;76.00
47921;DHT22;33686;48.770;9.186;2023-07-20T14:21:14;26.20;75.90
47921;DHT22;33686;48.770;9.186;2023-07-20T14:23:47;26.10;75.30
47921;DHT22;33686;48.770;9.186;2023-07-20T14:26:13;26.40;75.00
47921;DHT22;33686;48.770;9.186;2023-07-20T14:28:39;26.10;74.80
47921;DHT22;33686;48.770;9.186;2023-07-20T14:31:05;26.10;75.00
47921;DHT22;33686;48.770;9.186;2023-07-20T14:33:32;26.00;74.90
47921;DHT22;33686;48.770;9.186;2023-07-20T14:35:58;26.10;75.20
47921;DHT22;33686;48.770;9.186;2023-07-20T14:38:23;25.90;75.10
47921;DHT22;33686;48.770;9.186;2023-07-20T14:40:49;26.00;75.30
47921;DHT22;33686;48.770;9.186;2023-07-20T14:43:14;26.00;75.20
47921;DHT22;33686;48.770;9.186;2023-07-20T14:45:41;25.80;74.70
47921;DHT22;33686;48.770;9.186;2023-07-20T14:48:07;25.90;74.40
47921;DHT22;33686;48.770;9.186;2023-07-20T14:50:34;25.80;75.20
47921;DHT22;33686;48.770;9.186;2023-07-20T14:53:01;26.20;74.50
47921;DHT22;33686;48.770;9.186;2023-07-20T14:55:27;26.30;74.30
47921;DHT22;33686;48.770;9.186;2023-07-20T14:57:54;26.00;74.20
47921;DHT22;33686;48.770;9.186;2023-07-20T15:00:20;26.10;74.20
47921;DHT22;33686;48.770;9.186;2023-07-20T15:02:47;26.20;73.80
47921;DHT22;33686;48.770;9.186;2023-07-20T15:05:20;26.40;73.50
47921;DHT22;33686;48.770;9.186;2023-07-20T15:07:46;26.40;73.10
47921;DHT22;33686;48.770;9.186;2023-07-20T15:10:11;26.10;73.20
47921;DHT22;33686;48.770;9.186;2023-07-20T15:12:37;25.60;73.30
47921;DHT22;33686;48.770;9.186;2023-07-20T15:15:03;25.70;73.50
47921;DHT22;33686;48.770;9.186;2023-07-20T15:17:32;25.80;74.00
47921;DHT22;33686;48.770;9.186;2023-07-20T15:19:58;25.70;73.80
47921;DHT22;33686;48.770;9.186;2023-07-20T15:22:24;25.50;74.50
47921;DHT22;33686;48.770;9.186;2023-07-20T15:24:52;25.60;75.00
47921;DHT22;33686;48.770;9.186;2023-07-20T15:27:17;25.80;74.60
47921;DHT22;33686;48.770;9.186;2023-07-20T15:29:43;26.00;74.90
47921;DHT22;33686;48.770;9.186;2023-07-20T15:32:18;25.90;74.70
47921;DHT22;33686;48.770;9.186;2023-07-20T15:34:44;25.80;74.00
47921;DHT22;33686;48.770;9.186;2023-07-20T15:37:12;25.60;74.00
47921;DHT22;33686;48.770;9.186;2023-07-20T15:39:38;26.00;73.90
47921;DHT22;33686;48.770;9.186;2023-07-20T15:42:04;26.00;73.60
47921;DHT22;33686;48.770;9.186;2023-07-20T15:44:30;26.10;73.60
47921;DHT22;33686;48.770;9.186;2023-07-20T15:46:56;25.60;73.90
47921;DHT22;33686;48.770;9.186;2023-07-20T15:49:22;25.30;74.10
47921;DHT22;33686;48.770;9.186;2023-07-20T15:51:48;25.60;74.10
47921;DHT22;33686;48.770;9.186;2023-07-20T15:54:14;25.60;74.20
47921;DHT22;33686;48.770;9.186;2023-07-20T15:56:40;25.80;74.00
47921;DHT22;33686;48.770;9.186;2023-07-20T15:59:10;25.60;74.50
47921;DHT22;33686;48.770;9.186;2023-07-20T16:01:36;25.80;75.00
47921;DHT22;33686;48.770;9.186;2023-07-20T16:04:04;25.40;74.70
47921;DHT22;33686;48.770;9.186;2023-07-20T16:06:30;25.30;74.20
47921;DHT22;33686;48.770;9.186;2023-07-20T16:08:55;25.20;74.90
47921;DHT22;33686;48.770;9.186;2023-07-20T16:11:21;25.50;75.40
47921;DHT22;33686;48.770;9.186;2023-07-20T16:13:48;25.60;75.40
47921;DHT22;33686;48.770;9.186;2023-07-20T16:16:15;25.60;74.50
47921;DHT22;33686;48.770;9.186;2023-07-20T16:18:41;25.50;75.00
47921;DHT22;33686;48.770;9.186;2023-07-20T16:21:07;25.20;75.70
47921;DHT22;33686;48.770;9.186;2023-07-20T16:23:32;25.20;75.00
47921;DHT22;33686;48.770;9.186;2023-07-20T16:26:01;25.50;74.90
47921;DHT22;33686;48.770;9.186;2023-07-20T16:28:27;25.60;74.60
47921;DHT22;33686;48.770;9.186;2023-07-20T16:30:53;25.50;74.60
47921;DHT22;33686;48.770;9.186;2023-07-20T16:33:19;25.50;74.60
47921;DHT22;33686;48.770;9.186;2023-07-20T16:35:45;25.60;74.50
47921;DHT22;33686;48.770;9.186;2023-07-20T16:38:11;25.60;74.50
47921;DHT22;33686;48.770;9.186;2023-07-20T16:40:37;25.30;75.10
47921;DHT22;33686;48.770;9.186;2023-07-20T16:43:03;25.30;75.00
47921;DHT22;33686;48.770;9.186;2023-07-20T16:45:28;25.50;74.60
47921;DHT22;33686;48.770;9.186;2023-07-20T16:47:55;25.20;74.30
47921;DHT22;33686;48.770;9.186;2023-07-20T16:50:21;25.00;74.10
47921;DHT22;33686;48.770;9.186;2023-07-20T16:52:48;25.20;74.40
47921;DHT22;33686;48.770;9.186;2023-07-20T16:55:14;25.10;74.10
47921;DHT22;33686;48.770;9.186;2023-07-20T16:57:41;25.00;75.00
47921;DHT22;33686;48.770;9.186;2023-07-20T17:00:09;24.80;74.90
47921;DHT22;33686;48.770;9.186;2023-07-20T17:02:38;24.80;75.30
47921;DHT22;33686;48.770;9.186;2023-07-20T17:05:04;24.80;75.70
47921;DHT22;33686;48.770;9.186;2023-07-20T17:07:36;24.90;75.00
47921;DHT22;33686;48.770;9.186;2023-07-20T17:10:04;24.90;74.70
47921;DHT22;33686;48.770;9.186;2023-07-20T17:12:38;24.80;75.30
47921;DHT22;33686;48.770;9.186;2023-07-20T17:15:04;24.90;75.00
47921;DHT22;33686;48.770;9.186;2023-07-20T17:17:30;25.00;74.30
47921;DHT22;33686;48.770;9.186;2023-07-20T17:19:55;25.00;74.10
47921;DHT22;33686;48.770;9.186;2023-07-20T17:22:21;24.80;74.30
47921;DHT22;33686;48.770;9.186;2023-07-20T17:24:46;24.90;74.40
47921;DHT22;33686;48.770;9.186;2023-07-20T17:27:12;24.80;74.10
47921;DHT22;33686;48.770;9.186;2023-07-20T17:29:39;24.60;74.60
47921;DHT22;33686;48.770;9.186;2023-07-20T17:32:05;24.70;74.40
47921;DHT22;33686;48.770;9.186;2023-07-20T17:34:30;24.70;74.20
47921;DHT22;33686;48.770;9.186;2023-07-20T17:36:56;24.70;74.20
47921;DHT22;33686;48.770;9.186;2023-07-20T17:39:22;24.50;74.20
47921;DHT22;33686;48.770;9.186;2023-07-20T17:41:49;24.50;74.30
47921;DHT22;33686;48.770;9.186;2023-07-20T17:44:15;24.50;74.30
47921;DHT22;33686;48.770;9.186;2023-07-20T17:46:43;24.40;74.20
47921;DHT22;33686;48.770;9.186;2023-07-20T17:49:13;24.40;74.40
47921;DHT22;33686;48.770;9.186;2023-07-20T17:51:41;24.40;74.80
47921;DHT22;33686;48.770;9.186;2023-07-20T17:54:07;24.20;75.00
47921;DHT22;33686;48.770;9.186;2023-07-20T17:56:33;24.20;74.90
47921;DHT22;33686;48.770;9.186;2023-07-20T17:59:00;24.30;75.20
47921;DHT22;33686;48.770;9.186;2023-07-20T18:01:25;24.20;75.10
47921;DHT22;33686;48.770;9.186;2023-07-20T18:03:51;24.20;75.30
47921;DHT22;33686;48.770;9.186;2023-07-20T18:06:17;24.10;75.20
47921;DHT22;33686;48.770;9.186;2023-07-20T18:08:43;24.00;76.00
47921;DHT22;33686;48.770;9.186;2023-07-20T18:11:11;24.00;75.30
47921;DHT22;33686;48.770;9.186;2023-07-20T18:13:36;23.90;75.60
47921;DHT22;33686;48.770;9.186;2023-07-20T18:16:02;23.80;76.00
47921;DHT22;33686;48.770;9.186;2023-07-20T18:18:28;23.80;75.90
47921;DHT22;33686;48.770;9.186;2023-07-20T18:20:54;23.70;76.20
47921;DHT22;33686;48.770;9.186;2023-07-20T18:23:19;23.70;76.50
47921;DHT22;33686;48.770;9.186;2023-07-20T18:25:46;23.70;76.20
47921;DHT22;33686;48.770;9.186;2023-07-20T18:28:12;23.60;76.40
47921;DHT22;33686;48.770;9.186;2023-07-20T18:30:41;23.60;76.70
47921;DHT22;33686;48.770;9.186;2023-07-20T18:33:07;23.50;76.00
47921;DHT22;33686;48.770;9.186;2023-07-20T18:35:32;23.50;76.20
47921;DHT22;33686;48.770;9.186;2023-07-20T18:38:01;23.50;76.10
47921;DHT22;33686;48.770;9.186;2023-07-20T18:40:26;23.50;76.10
47921;DHT22;33686;48.770;9.186;2023-07-20T18:42:52;23.50;76.00
47921;DHT22;33686;48.770;9.186;2023-07-20T18:45:18;23.50;76.10
47921;DHT22;33686;48.770;9.186;2023-07-20T18:47:44;23.40;75.50
47921;DHT22;33686;48.770;9.186;2023-07-20T18:50:11;23.40;75.80
47921;DHT22;33686;48.770;9.186;2023-07-20T18:52:37;23.30;75.50
47921;DHT22;33686;48.770;9.186;2023-07-20T18:55:04;23.30;75.90
47921;DHT22;33686;48.770;9.186;2023-07-20T18:57:31;23.20;75.90
47921;DHT22;33686;48.770;9.186;2023-07-20T18:59:57;23.30;76.00
47921;DHT22;33686;48.770;9.186;2023-07-20T19:02:27;23.20;75.90
47921;DHT22;33686;48.770;9.186;2023-07-20T19:04:53;23.10;76.00
47921;DHT22;33686;48.770;9.186;2023-07-20T19:07:22;23.10;76.10
47921;DHT22;33686;48.770;9.186;2023-07-20T19:09:47;23.10;76.10
47921;DHT22;33686;48.770;9.186;2023-07-20T19:12:13;23.10;76.30
47921;DHT22;33686;48.770;9.186;2023-07-20T19:14:39;23.10;76.00
47921;DHT22;33686;48.770;9.186;2023-07-20T19:17:05;23.00;76.70
47921;DHT22;33686;48.770;9.186;2023-07-20T19:19:31;23.00;76.50
47921;DHT22;33686;48.770;9.186;2023-07-20T19:21:57;23.00;76.50
47921;DHT22;33686;48.770;9.186;2023-07-20T19:24:24;22.90;76.80
47921;DHT22;33686;48.770;9.186;2023-07-20T19:26:49;23.00;76.90
47921;DHT22;33686;48.770;9.186;2023-07-20T19:29:16;22.90;77.50
47921;DHT22;33686;48.770;9.186;2023-07-20T19:31:42;22.90;77.50
47921;DHT22;33686;48.770;9.186;2023-07-20T19:34:08;22.80;77.90
47921;DHT22;33686;48.770;9.186;2023-07-20T19:36:34;22.80;78.70
47921;DHT22;33686;48.770;9.186;2023-07-20T19:39:00;22.80;77.70
47921;DHT22;33686;48.770;9.186;2023-07-20T19:41:27;22.80;78.20
47921;DHT22;33686;48.770;9.186;2023-07-20T19:43:55;22.20;82.00
47921;DHT22;33686;48.770;9.186;2023-07-20T19:46:21;21.70;83.20
47921;DHT22;33686;48.770;9.186;2023-07-20T19:48:47;21.50;84.00
47921;DHT22;33686;48.770;9.186;2023-07-20T19:51:16;21.30;84.50
47921;DHT22;33686;48.770;9.186;2023-07-20T19:53:42;21.20;84.90
47921;DHT22;33686;48.770;9.186;2023-07-20T19:56:07;21.10;86.50
47921;DHT22;33686;48.770;9.186;2023-07-20T19:58:34;21.00;85.80
47921;DHT22;33686;48.770;9.186;2023-07-20T20:01:00;20.90;86.60
47921;DHT22;33686;48.770;9.186;2023-07-20T20:03:26;20.70;86.90
47921;DHT22;33686;48.770;9.186;2023-07-20T20:05:52;20.60;87.70
47921;DHT22;33686;48.770;9.186;2023-07-20T20:08:19;20.50;88.30
47921;DHT22;33686;48.770;9.186;2023-07-20T20:10:46;20.40;87.90
47921;DHT22;33686;48.770;9.186;2023-07-20T20:13:13;20.50;88.70
47921;DHT22;33686;48.770;9.186;2023-07-20T20:15:40;20.50;88.70
47921;DHT22;33686;48.770;9.186;2023-07-20T20:18:06;20.30;89.10
47921;DHT22;33686;48.770;9.186;2023-07-20T20:20:35;20.30;89.00
47921;DHT22;33686;48.770;9.186;2023-07-20T20:23:17;20.20;88.60
47921;DHT22;33686;48.770;9.186;2023-07-20T20:25:47;20.10;89.20
47921;DHT22;33686;48.770;9.186;2023-07-20T20:28:17;20.10;89.10
47921;DHT22;33686;48.770;9.186;2023-07-20T20:30:48;20.00;89.80
47921;DHT22;33686;48.770;9.186;2023-07-20T20:33:14;19.90;90.20
47921;DHT22;33686;48.770;9.186;2023-07-20T20:35:40;19.80;90.10
47921;DHT22;33686;48.770;9.186;2023-07-20T20:38:07;19.80;90.20
47921;DHT22;33686;48.770;9.186;2023-07-20T20:40:33;19.70;90.20
47921;DHT22;33686;48.770;9.186;2023-07-20T20:42:59;19.70;90.40
47921;DHT22;33686;48.770;9.186;2023-07-20T20:45:24;19.70;90.50